createdAt,value
2022-09-25T00:03:41.934Z,2.17
2022-09-25T00:08:48.062Z,2.37
2022-09-25T00:13:54.494Z,2.43
2022-09-25T00:19:00.583Z,2.32
2022-09-25T00:24:06.952Z,2.53
2022-09-25T00:29:13.007Z,2.43
2022-09-25T00:34:19.433Z,2.37
2022-09-25T00:39:25.700Z,2.33
2022-09-25T00:44:32.040Z,2.34
2022-09-25T00:49:38.595Z,2.19
2022-09-25T00:54:44.759Z,2.28
2022-09-25T00:59:50.973Z,2.35
2022-09-25T01:04:57.217Z,2.59
2022-09-25T01:10:03.398Z,2.19
2022-09-25T01:15:09.746Z,2.37
2022-09-25T01:20:15.837Z,2.64
2022-09-25T01:25:22.447Z,2.17
2022-09-25T01:30:28.694Z,2.29
2022-09-25T01:35:34.946Z,2.60
2022-09-25T01:40:41.560Z,2.45
2022-09-25T01:45:47.900Z,2.38
2022-09-25T01:50:54.311Z,2.13
2022-09-25T01:56:00.535Z,2.17
2022-09-25T02:01:09.452Z,2.21
2022-09-25T02:06:15.683Z,2.38
2022-09-25T02:11:21.868Z,2.52
2022-09-25T02:16:28.096Z,2.13
2022-09-25T02:21:37.183Z,2.25
2022-09-25T02:26:43.438Z,2.34
2022-09-25T02:31:49.507Z,2.38
2022-09-25T02:36:55.739Z,2.02
2022-09-25T02:42:01.907Z,2.47
2022-09-25T02:47:08.559Z,2.38
2022-09-25T02:52:15.053Z,2.68
2022-09-25T02:57:21.574Z,2.55
2022-09-25T03:02:27.704Z,2.08
2022-09-25T03:07:33.991Z,2.25
2022-09-25T03:12:40.136Z,2.54
2022-09-25T03:17:46.412Z,2.72
2022-09-25T03:22:52.964Z,2.11
2022-09-25T03:27:59.127Z,2.20
2022-09-25T03:33:07.049Z,2.23
2022-09-25T03:38:13.793Z,2.39
2022-09-25T03:43:20.003Z,2.44
2022-09-25T03:48:26.264Z,2.28
2022-09-25T03:53:32.378Z,2.48
2022-09-25T03:58:38.918Z,2.68
2022-09-25T04:03:45.165Z,2.59
2022-09-25T04:08:51.688Z,2.08
2022-09-25T04:13:58.133Z,2.13
2022-09-25T04:19:04.329Z,2.31
2022-09-25T04:24:10.526Z,2.23
2022-09-25T04:29:16.717Z,2.38
2022-09-25T04:34:22.801Z,2.27
2022-09-25T04:39:29.126Z,2.35
2022-09-25T04:44:35.401Z,2.06
2022-09-25T04:49:41.741Z,2.17
2022-09-25T04:54:47.864Z,2.25
2022-09-25T04:59:54.032Z,2.29
2022-09-25T05:05:01.069Z,2.51
2022-09-25T05:10:07.789Z,2.53
2022-09-25T05:15:13.961Z,2.33
2022-09-25T05:20:20.303Z,2.17
2022-09-25T05:25:26.394Z,1.99
2022-09-25T05:30:33.079Z,2.25
2022-09-25T05:35:39.198Z,2.50
2022-09-25T05:40:45.491Z,2.56
2022-09-25T05:45:51.672Z,2.30
2022-09-25T05:50:57.873Z,2.24
2022-09-25T05:56:04.047Z,2.04
2022-09-25T06:01:10.244Z,2.17
2022-09-25T06:06:16.299Z,2.18
2022-09-25T06:11:22.707Z,2.37
2022-09-25T06:16:29.234Z,2.30
2022-09-25T06:21:35.381Z,2.31
2022-09-25T06:26:41.805Z,2.26
2022-09-25T06:31:48.050Z,2.44
2022-09-25T06:36:54.370Z,2.32
2022-09-25T06:42:00.594Z,2.32
2022-09-25T06:47:09.660Z,2.24
2022-09-25T06:52:15.994Z,2.06
2022-09-25T06:57:22.156Z,1.89
2022-09-25T07:02:28.560Z,2.05
2022-09-25T07:07:34.805Z,2.78
2022-09-25T07:12:41.012Z,2.59
2022-09-25T07:17:47.062Z,2.37
2022-09-25T07:22:53.742Z,2.09
2022-09-25T07:28:00.046Z,2.39
2022-09-25T07:33:06.682Z,2.38
2022-09-25T07:38:12.802Z,2.24
2022-09-25T07:43:19.040Z,2.53
2022-09-25T07:48:25.470Z,2.30
2022-09-25T07:53:31.944Z,2.14
2022-09-25T07:58:38.433Z,3.09
2022-09-25T08:03:44.604Z,2.23
2022-09-25T08:08:50.796Z,2.11
2022-09-25T08:13:57.044Z,2.29
2022-09-25T08:19:03.323Z,2.52
2022-09-25T08:24:09.587Z,2.24
2022-09-25T08:29:15.741Z,2.21
2022-09-25T08:34:39.954Z,2.86
2022-09-25T08:39:28.561Z,2.25
2022-09-25T08:44:34.765Z,2.03
2022-09-25T08:49:40.953Z,1.99
2022-09-25T08:54:47.237Z,1.88
2022-09-25T08:59:56.027Z,2.16
2022-09-25T09:05:00.043Z,2.32
2022-09-25T09:10:07.004Z,1.89
2022-09-25T09:15:13.232Z,1.75
2022-09-25T09:20:19.446Z,1.51
2022-09-25T09:25:25.812Z,1.85
2022-09-25T09:31:28.829Z,1.48
2022-09-25T09:36:35.528Z,1.66
2022-09-25T09:41:42.431Z,1.49
2022-09-25T09:46:48.736Z,1.47
2022-09-25T09:52:02.873Z,1.34
2022-09-25T09:56:59.543Z,1.50
2022-09-25T10:02:05.845Z,1.26
2022-09-25T10:07:12.000Z,1.21
2022-09-25T10:12:18.534Z,1.33
2022-09-25T10:17:24.841Z,1.34
2022-09-25T10:22:31.349Z,1.71
2022-09-25T10:27:37.598Z,1.16
2022-09-25T10:32:43.744Z,1.35
2022-09-25T10:37:50.083Z,1.31
2022-09-25T10:42:56.184Z,1.35
2022-09-25T10:48:02.837Z,1.48
2022-09-25T10:53:08.951Z,1.66
2022-09-25T10:58:15.305Z,1.24
2022-09-25T11:03:22.442Z,1.38
2022-09-25T11:08:28.783Z,1.12
2022-09-25T11:13:34.917Z,1.32
2022-09-25T11:18:41.142Z,1.31
2022-09-25T11:23:47.403Z,1.15
2022-09-25T11:28:53.590Z,1.29
2022-09-25T11:33:59.774Z,1.34
2022-09-25T11:39:06.086Z,1.35
2022-09-25T11:44:12.115Z,1.23
2022-09-25T11:49:20.893Z,1.31
2022-09-25T11:54:33.681Z,1.25
2022-09-25T11:59:33.134Z,1.32
2022-09-25T12:04:41.437Z,1.51
2022-09-25T12:09:45.125Z,1.35
2022-09-25T12:14:51.636Z,1.56
2022-09-25T12:19:58.740Z,1.51
2022-09-25T12:25:05.079Z,1.03
2022-09-25T12:30:11.796Z,1.53
2022-09-25T12:35:17.926Z,1.44
2022-09-25T12:40:24.312Z,1.53
2022-09-25T12:45:30.710Z,1.33
2022-09-25T12:50:37.237Z,1.48
2022-09-25T12:55:43.339Z,1.58
2022-09-25T13:00:49.692Z,1.45
2022-09-25T13:05:55.852Z,1.77
2022-09-25T13:11:02.210Z,1.60
2022-09-25T13:16:08.406Z,1.76
2022-09-25T13:21:14.931Z,1.54
2022-09-25T13:26:21.049Z,1.34
2022-09-25T13:31:27.581Z,1.49
2022-09-25T13:36:34.394Z,1.49
2022-09-25T13:41:40.665Z,1.65
2022-09-25T13:46:46.818Z,1.44
2022-09-25T13:51:53.416Z,1.15
2022-09-25T13:56:59.802Z,1.43
2022-09-25T14:02:06.128Z,1.40
2022-09-25T14:07:12.582Z,1.45
2022-09-25T14:12:19.040Z,1.44
2022-09-25T14:17:25.371Z,1.33
2022-09-25T14:22:31.834Z,1.51
2022-09-25T14:27:38.340Z,1.34
2022-09-25T14:32:55.126Z,1.26
2022-09-25T14:37:50.555Z,1.31
2022-09-25T14:42:56.862Z,1.41
2022-09-25T14:48:03.371Z,1.39
2022-09-25T14:53:09.659Z,1.54
2022-09-25T14:58:15.765Z,1.37
2022-09-25T15:03:22.028Z,1.31
2022-09-25T15:08:28.161Z,1.64
2022-09-25T15:13:34.478Z,1.70
2022-09-25T15:18:41.415Z,1.45
2022-09-25T15:23:47.664Z,1.79
2022-09-25T15:28:53.841Z,1.83
2022-09-25T15:34:00.096Z,1.69
2022-09-25T15:39:06.255Z,1.68
2022-09-25T15:44:14.989Z,1.60
2022-09-25T15:49:21.157Z,1.42
2022-09-25T15:54:27.342Z,1.63
2022-09-25T15:59:33.786Z,1.68
2022-09-25T16:04:40.078Z,1.90
2022-09-25T16:09:46.296Z,1.69
2022-09-25T16:14:52.866Z,1.66
2022-09-25T16:19:59.154Z,1.66
2022-09-25T16:25:05.387Z,1.81
2022-09-25T16:30:11.859Z,1.27
2022-09-25T16:35:18.111Z,1.47
2022-09-25T16:40:25.146Z,1.60
2022-09-25T16:45:31.207Z,1.25
2022-09-25T16:50:37.491Z,1.19
2022-09-25T16:55:47.339Z,1.57
2022-09-25T17:00:50.112Z,1.48
2022-09-25T17:05:56.483Z,1.77
2022-09-25T17:11:02.935Z,1.93
2022-09-25T17:16:09.380Z,1.97
2022-09-25T17:21:15.414Z,2.00
2022-09-25T17:26:21.689Z,1.81
2022-09-25T17:31:28.439Z,1.95
2022-09-25T17:36:34.786Z,2.13
2022-09-25T17:41:40.912Z,2.76
2022-09-25T17:46:47.243Z,2.44
2022-09-25T17:51:53.564Z,1.86
2022-09-25T17:56:59.778Z,1.85
2022-09-25T18:02:05.962Z,2.24
2022-09-25T18:07:12.579Z,2.32
2022-09-25T18:12:18.742Z,1.92
2022-09-25T18:17:25.105Z,1.72
2022-09-25T18:22:31.181Z,1.71
2022-09-25T18:27:37.445Z,1.67
2022-09-25T18:32:43.888Z,2.08
2022-09-25T18:37:50.242Z,1.72
2022-09-25T18:42:56.371Z,1.69
2022-09-25T18:48:02.689Z,2.38
2022-09-25T18:53:08.834Z,1.91
2022-09-25T18:58:15.166Z,11.25
2022-09-25T19:03:21.248Z,5.91
2022-09-25T19:08:27.622Z,3.68
2022-09-25T19:13:34.029Z,2.54
2022-09-25T19:18:40.962Z,2.42
2022-09-25T19:23:47.146Z,2.36
2022-09-25T19:28:53.880Z,2.33
2022-09-25T19:34:00.636Z,2.14
2022-09-25T19:39:07.709Z,2.23
2022-09-25T19:44:14.201Z,2.22
2022-09-25T19:49:21.090Z,2.29
2022-09-25T19:54:27.356Z,2.84
2022-09-25T19:59:34.226Z,4.10
2022-09-25T20:04:40.590Z,3.35
2022-09-25T20:09:46.930Z,2.84
2022-09-25T20:14:53.055Z,2.89
2022-09-25T20:19:59.259Z,3.56
2022-09-25T20:25:05.317Z,3.82
2022-09-25T20:30:12.028Z,3.50
2022-09-25T20:35:18.221Z,3.82
2022-09-25T20:40:25.054Z,3.52
2022-09-25T20:45:31.088Z,3.67
2022-09-25T20:50:37.588Z,3.58
2022-09-25T20:55:46.567Z,3.24
2022-09-25T21:00:52.839Z,3.31
2022-09-25T21:05:59.036Z,3.30
2022-09-25T21:11:05.341Z,3.26
2022-09-25T21:16:11.641Z,3.19
2022-09-25T21:21:18.087Z,3.48
2022-09-25T21:26:24.207Z,3.12
2022-09-25T21:31:31.548Z,3.25
2022-09-25T21:36:37.912Z,3.93
2022-09-25T21:41:44.248Z,3.51
2022-09-25T21:46:50.480Z,3.31
2022-09-25T21:51:56.780Z,3.22
2022-09-25T21:57:03.000Z,3.42
2022-09-25T22:02:09.405Z,3.26
2022-09-25T22:07:15.668Z,3.44
2022-09-25T22:12:21.831Z,3.38
2022-09-25T22:17:28.028Z,3.35
2022-09-25T22:22:34.338Z,3.46
2022-09-25T22:27:40.438Z,3.52
2022-09-25T22:32:46.617Z,3.46
2022-09-25T22:37:53.148Z,3.68
2022-09-25T22:42:59.339Z,3.65
2022-09-25T22:48:05.571Z,3.52
2022-09-25T22:53:11.820Z,3.47
2022-09-25T22:58:17.891Z,3.15
2022-09-25T23:03:24.825Z,3.47
2022-09-25T23:08:29.932Z,3.61
2022-09-25T23:13:36.249Z,3.28
2022-09-25T23:18:42.397Z,3.17
2022-09-25T23:23:48.869Z,3.29
2022-09-25T23:28:55.000Z,3.16
2022-09-25T23:34:01.249Z,2.89
2022-09-25T23:39:07.567Z,2.98
2022-09-25T23:44:13.903Z,2.96
2022-09-25T23:49:19.998Z,3.01
2022-09-25T23:54:26.349Z,3.22
2022-09-25T23:59:32.390Z,2.92
